Highspeed 7 — SYDM — position and weather

sailwx.info

Track history (hours):
 
Tides and Currents Weather Stations Pressure Air Temp Water Temp Dewpoint Dewpoint Depression Visibility Wind Speed Wind Dir Waves Ship Positions

Highspeed 7

Last reported at 2017-Jun-26 12:36 UTC. Time now 2017-Jun-26 19:01 UTC.
Position N 37°03' E 025°03'.

Length 87 m; draft 3.5 m.

Type: Ship. MMSI: 240348000.

Date/timePositionNaut miles runAvg speedWind from/ knotsBaromVisibWave heightAir tempDewpointWater temp
2017-Jun-26 12:36N 37°03' E 025°03'337.2
2017-Jun-26 12:31N 37°05' E 025°06'714.8
2017-Jun-26 12:00N 37°11' E 025°11'1835.5
2017-Jun-26 11:31N 37°28' E 025°19'3 5.2
2017-Jun-26 11:00N 37°26' E 025°17'1937.4
2017-Jun-26 10:30N 37°08' E 025°08'4 8.7
2017-Jun-26 10:00N 37°05' E 025°04'3 0.1
2017-Jun-24 12:45N 37°03' E 025°02'514.8
2017-Jun-24 12:23N 37°05' E 025°08'1230.7
2017-Jun-24 12:01N 37°16' E 025°13'1325.2
2017-Jun-24 11:30N 37°28' E 025°19'815.2
2017-Jun-24 11:01N 37°25' E 025°11'1937.2
2017-Jun-24 10:30N 37°06' E 025°07'4 8.8
2017-Jun-24 10:01N 37°04' E 025°03'1 0.0
2017-Jun-23 12:42N 37°03' E 025°03'514.1
2017-Jun-23 12:20N 37°05' E 025°08'1029.9
2017-Jun-23 12:01N 37°14' E 025°12'1529.4
2017-Jun-23 11:30N 37°28' E 025°19'815.0
2017-Jun-23 11:00N 37°25' E 025°11'1937.4
2017-Jun-23 10:30N 37°06' E 025°07'4 8.1
2017-Jun-23 10:01N 37°04' E 025°03'1 0.1
2017-Jun-22 12:39N 37°03' E 025°03'515.1
2017-Jun-22 12:17N 37°05' E 025°08'827.8
2017-Jun-22 12:01N 37°13' E 025°11'1733.1
2017-Jun-22 11:30N 37°28' E 025°19'713.3
2017-Jun-22 11:00N 37°26' E 025°11'1937.4
2017-Jun-22 10:30N 37°08' E 025°08'5 9.1
2017-Jun-22 10:00N 37°04' E 025°04'2 0.1
2017-Jun-21 12:39N 37°03' E 025°03'513.9
2017-Jun-21 12:16N 37°05' E 025°08'727.5
2017-Jun-21 12:01N 37°12' E 025°11'1734.6
2017-Jun-21 11:30N 37°28' E 025°19'4 8.8
2017-Jun-21 11:01N 37°24' E 025°17'1836.6
2017-Jun-21 10:30N 37°07' E 025°08'510.3
2017-Jun-21 10:01N 37°04' E 025°03'1 0.0
2017-Jun-20 12:58N 37°03' E 025°02'510.7
2017-Jun-20 12:28N 37°06' E 025°07'1837.8
2017-Jun-20 12:01N 37°22' E 025°17'612.9
2017-Jun-20 11:31N 37°28' E 025°19'1325.5
2017-Jun-20 11:01N 37°16' E 025°13'1218.6
2017-Jun-20 10:23N 37°05' E 025°08'6 0.3
2017-Jun-19 12:47N 37°03' E 025°02'513.3
2017-Jun-19 12:22N 37°05' E 025°08'1131.2
2017-Jun-19 12:00N 37°16' E 025°13'1325.7
2017-Jun-19 11:30N 37°28' E 025°19'1122.5
2017-Jun-19 11:00N 37°18' E 025°14'1216.2
2017-Jun-19 10:14N 37°07' E 025°07'5 0.1
2017-Jun-17 12:42N 37°03' E 025°03'611.8
2017-Jun-17 12:14N 37°07' E 025°08'836.9
2017-Jun-17 12:01N 37°14' E 025°12'1530.1
2017-Jun-17 11:30N 37°28' E 025°20'3 6.7
2017-Jun-17 11:01N 37°25' E 025°17'2036.6
2017-Jun-17 10:28N 37°07' E 025°08'4 8.3
2017-Jun-17 10:00N 37°05' E 025°04'2 0.1
2017-Jun-16 12:36N 37°03' E 025°02'  
Track history (hours):
 
Tides and Currents Weather Stations Pressure Air Temp Water Temp Dewpoint Dewpoint Depression Visibility Wind Speed Wind Dir Waves Ship Positions

Highspeed 7

Last reported at 2017-Jun-26 12:36 UTC. Time now 2017-Jun-26 19:01 UTC.
Position N 37°03' E 025°03'.

Length 87 m; draft 3.5 m.

Type: Ship. MMSI: 240348000.

Date/timePositionNaut miles runAvg speedWind from/ knotsBaromVisibWave heightAir tempDewpointWater temp
2017-Jun-26 12:36N 37°03' E 025°03'337.2
2017-Jun-26 12:31N 37°05' E 025°06'714.8
2017-Jun-26 12:00N 37°11' E 025°11'1835.5
2017-Jun-26 11:31N 37°28' E 025°19'3 5.2
2017-Jun-26 11:00N 37°26' E 025°17'1937.4
2017-Jun-26 10:30N 37°08' E 025°08'4 8.7
2017-Jun-26 10:00N 37°05' E 025°04'3 0.1
2017-Jun-24 12:45N 37°03' E 025°02'514.8
2017-Jun-24 12:23N 37°05' E 025°08'1230.7
2017-Jun-24 12:01N 37°16' E 025°13'1325.2
2017-Jun-24 11:30N 37°28' E 025°19'815.2
2017-Jun-24 11:01N 37°25' E 025°11'1937.2
2017-Jun-24 10:30N 37°06' E 025°07'4 8.8
2017-Jun-24 10:01N 37°04' E 025°03'1 0.0
2017-Jun-23 12:42N 37°03' E 025°03'514.1
2017-Jun-23 12:20N 37°05' E 025°08'1029.9
2017-Jun-23 12:01N 37°14' E 025°12'1529.4
2017-Jun-23 11:30N 37°28' E 025°19'815.0
2017-Jun-23 11:00N 37°25' E 025°11'1937.4
2017-Jun-23 10:30N 37°06' E 025°07'4 8.1
2017-Jun-23 10:01N 37°04' E 025°03'1 0.1
2017-Jun-22 12:39N 37°03' E 025°03'515.1
2017-Jun-22 12:17N 37°05' E 025°08'827.8
2017-Jun-22 12:01N 37°13' E 025°11'1733.1
2017-Jun-22 11:30N 37°28' E 025°19'713.3
2017-Jun-22 11:00N 37°26' E 025°11'1937.4
2017-Jun-22 10:30N 37°08' E 025°08'5 9.1
2017-Jun-22 10:00N 37°04' E 025°04'2 0.1
2017-Jun-21 12:39N 37°03' E 025°03'513.9
2017-Jun-21 12:16N 37°05' E 025°08'727.5
2017-Jun-21 12:01N 37°12' E 025°11'1734.6
2017-Jun-21 11:30N 37°28' E 025°19'4 8.8
2017-Jun-21 11:01N 37°24' E 025°17'1836.6
2017-Jun-21 10:30N 37°07' E 025°08'510.3
2017-Jun-21 10:01N 37°04' E 025°03'1 0.0
2017-Jun-20 12:58N 37°03' E 025°02'510.7
2017-Jun-20 12:28N 37°06' E 025°07'1837.8
2017-Jun-20 12:01N 37°22' E 025°17'612.9
2017-Jun-20 11:31N 37°28' E 025°19'1325.5
2017-Jun-20 11:01N 37°16' E 025°13'1218.6
2017-Jun-20 10:23N 37°05' E 025°08'6 0.3
2017-Jun-19 12:47N 37°03' E 025°02'513.3
2017-Jun-19 12:22N 37°05' E 025°08'1131.2
2017-Jun-19 12:00N 37°16' E 025°13'1325.7
2017-Jun-19 11:30N 37°28' E 025°19'1122.5
2017-Jun-19 11:00N 37°18' E 025°14'1216.2
2017-Jun-19 10:14N 37°07' E 025°07'5 0.1
2017-Jun-17 12:42N 37°03' E 025°03'611.8
2017-Jun-17 12:14N 37°07' E 025°08'836.9
2017-Jun-17 12:01N 37°14' E 025°12'1530.1
2017-Jun-17 11:30N 37°28' E 025°20'3 6.7
2017-Jun-17 11:01N 37°25' E 025°17'2036.6
2017-Jun-17 10:28N 37°07' E 025°08'4 8.3
2017-Jun-17 10:00N 37°05' E 025°04'2 0.1
2017-Jun-16 12:36N 37°03' E 025°02'  

Dump ship's entire track history